sensor_id;sensor_type;location;lat;lon;timestamp;P1;durP1;ratioP1;P2;durP2;ratioP2
21639;SDS011;10981;45.462;10.974;2023-09-30T00:01:12;14.55;;;11.48;;
21639;SDS011;10981;45.462;10.974;2023-09-30T00:03:42;15.60;;;10.45;;
21639;SDS011;10981;45.462;10.974;2023-09-30T00:06:10;15.88;;;10.52;;
21639;SDS011;10981;45.462;10.974;2023-09-30T00:08:39;14.48;;;9.85;;
21639;SDS011;10981;45.462;10.974;2023-09-30T00:11:09;15.43;;;9.88;;
21639;SDS011;10981;45.462;10.974;2023-09-30T00:13:37;18.98;;;10.77;;
21639;SDS011;10981;45.462;10.974;2023-09-30T00:16:05;19.40;;;10.68;;
21639;SDS011;10981;45.462;10.974;2023-09-30T00:18:34;15.65;;;10.48;;
21639;SDS011;10981;45.462;10.974;2023-09-30T00:21:02;14.30;;;9.80;;
21639;SDS011;10981;45.462;10.974;2023-09-30T00:23:31;17.90;;;10.57;;
21639;SDS011;10981;45.462;10.974;2023-09-30T00:25:59;17.13;;;10.88;;
21639;SDS011;10981;45.462;10.974;2023-09-30T00:28:27;18.35;;;12.25;;
21639;SDS011;10981;45.462;10.974;2023-09-30T00:30:56;16.00;;;10.23;;
21639;SDS011;10981;45.462;10.974;2023-09-30T00:33:25;17.10;;;11.00;;
21639;SDS011;10981;45.462;10.974;2023-09-30T00:35:54;13.90;;;10.07;;
21639;SDS011;10981;45.462;10.974;2023-09-30T00:38:22;20.17;;;10.52;;
21639;SDS011;10981;45.462;10.974;2023-09-30T00:40:52;15.70;;;9.95;;
21639;SDS011;10981;45.462;10.974;2023-09-30T00:43:20;10.70;;;9.30;;
21639;SDS011;10981;45.462;10.974;2023-09-30T00:45:48;13.95;;;9.80;;
21639;SDS011;10981;45.462;10.974;2023-09-30T00:48:23;13.48;;;10.15;;
21639;SDS011;10981;45.462;10.974;2023-09-30T00:50:52;16.52;;;10.95;;
21639;SDS011;10981;45.462;10.974;2023-09-30T00:53:20;15.23;;;10.48;;
21639;SDS011;10981;45.462;10.974;2023-09-30T00:55:48;17.27;;;10.82;;
21639;SDS011;10981;45.462;10.974;2023-09-30T00:58:18;14.73;;;10.38;;
21639;SDS011;10981;45.462;10.974;2023-09-30T01:00:46;16.30;;;10.65;;
21639;SDS011;10981;45.462;10.974;2023-09-30T01:03:15;14.38;;;9.77;;
21639;SDS011;10981;45.462;10.974;2023-09-30T01:05:45;16.98;;;10.13;;
21639;SDS011;10981;45.462;10.974;2023-09-30T01:08:15;14.07;;;9.55;;
21639;SDS011;10981;45.462;10.974;2023-09-30T01:10:44;14.60;;;9.48;;
21639;SDS011;10981;45.462;10.974;2023-09-30T01:13:13;18.88;;;10.50;;
21639;SDS011;10981;45.462;10.974;2023-09-30T01:15:41;14.27;;;10.63;;
21639;SDS011;10981;45.462;10.974;2023-09-30T01:18:10;15.70;;;10.88;;
21639;SDS011;10981;45.462;10.974;2023-09-30T01:20:38;20.88;;;10.05;;
21639;SDS011;10981;45.462;10.974;2023-09-30T01:23:07;13.93;;;10.43;;
21639;SDS011;10981;45.462;10.974;2023-09-30T01:25:39;13.48;;;9.82;;
21639;SDS011;10981;45.462;10.974;2023-09-30T01:28:08;16.30;;;10.55;;
21639;SDS011;10981;45.462;10.974;2023-09-30T01:30:37;14.70;;;10.10;;
21639;SDS011;10981;45.462;10.974;2023-09-30T01:33:06;16.80;;;10.85;;
21639;SDS011;10981;45.462;10.974;2023-09-30T01:35:35;13.52;;;10.27;;
21639;SDS011;10981;45.462;10.974;2023-09-30T01:38:05;18.45;;;10.68;;
21639;SDS011;10981;45.462;10.974;2023-09-30T01:40:34;21.35;;;11.40;;
21639;SDS011;10981;45.462;10.974;2023-09-30T01:43:04;18.85;;;11.55;;
21639;SDS011;10981;45.462;10.974;2023-09-30T01:45:33;16.00;;;10.05;;
21639;SDS011;10981;45.462;10.974;2023-09-30T01:48:02;17.25;;;10.50;;
21639;SDS011;10981;45.462;10.974;2023-09-30T01:50:31;16.52;;;10.77;;
21639;SDS011;10981;45.462;10.974;2023-09-30T01:52:59;16.15;;;10.75;;
21639;SDS011;10981;45.462;10.974;2023-09-30T01:55:28;21.58;;;11.27;;
21639;SDS011;10981;45.462;10.974;2023-09-30T01:57:57;14.05;;;10.98;;
21639;SDS011;10981;45.462;10.974;2023-09-30T02:00:26;13.80;;;10.68;;
21639;SDS011;10981;45.462;10.974;2023-09-30T02:02:55;17.75;;;10.00;;
21639;SDS011;10981;45.462;10.974;2023-09-30T02:05:27;13.57;;;10.05;;
21639;SDS011;10981;45.462;10.974;2023-09-30T02:07:56;16.25;;;11.57;;
21639;SDS011;10981;45.462;10.974;2023-09-30T02:10:24;18.67;;;11.07;;
21639;SDS011;10981;45.462;10.974;2023-09-30T02:12:53;13.50;;;10.07;;
21639;SDS011;10981;45.462;10.974;2023-09-30T02:15:21;14.35;;;10.68;;
21639;SDS011;10981;45.462;10.974;2023-09-30T02:17:49;19.02;;;10.07;;
21639;SDS011;10981;45.462;10.974;2023-09-30T02:20:18;13.30;;;9.55;;
21639;SDS011;10981;45.462;10.974;2023-09-30T02:22:49;13.60;;;10.55;;
21639;SDS011;10981;45.462;10.974;2023-09-30T02:25:17;13.23;;;10.20;;
21639;SDS011;10981;45.462;10.974;2023-09-30T02:27:49;13.80;;;10.27;;
21639;SDS011;10981;45.462;10.974;2023-09-30T02:30:18;14.98;;;9.77;;
21639;SDS011;10981;45.462;10.974;2023-09-30T02:32:49;13.13;;;9.63;;
21639;SDS011;10981;45.462;10.974;2023-09-30T02:35:18;15.55;;;9.38;;
21639;SDS011;10981;45.462;10.974;2023-09-30T02:37:47;15.23;;;10.63;;
21639;SDS011;10981;45.462;10.974;2023-09-30T02:40:17;14.02;;;10.23;;
21639;SDS011;10981;45.462;10.974;2023-09-30T02:42:47;13.18;;;10.20;;
21639;SDS011;10981;45.462;10.974;2023-09-30T02:45:16;12.10;;;9.63;;
21639;SDS011;10981;45.462;10.974;2023-09-30T02:47:44;15.88;;;10.40;;
21639;SDS011;10981;45.462;10.974;2023-09-30T02:50:14;13.32;;;9.25;;
21639;SDS011;10981;45.462;10.974;2023-09-30T02:52:42;14.15;;;9.38;;
21639;SDS011;10981;45.462;10.974;2023-09-30T02:55:11;17.90;;;10.00;;
21639;SDS011;10981;45.462;10.974;2023-09-30T02:57:39;12.32;;;9.40;;
21639;SDS011;10981;45.462;10.974;2023-09-30T03:00:09;17.85;;;9.20;;
21639;SDS011;10981;45.462;10.974;2023-09-30T03:02:52;14.50;;;9.88;;
21639;SDS011;10981;45.462;10.974;2023-09-30T03:05:21;15.27;;;9.82;;
21639;SDS011;10981;45.462;10.974;2023-09-30T03:07:50;19.58;;;10.30;;
21639;SDS011;10981;45.462;10.974;2023-09-30T03:10:19;12.73;;;9.35;;
21639;SDS011;10981;45.462;10.974;2023-09-30T03:12:48;11.65;;;9.80;;
21639;SDS011;10981;45.462;10.974;2023-09-30T03:15:16;14.68;;;9.90;;
21639;SDS011;10981;45.462;10.974;2023-09-30T03:17:45;16.33;;;9.88;;
21639;SDS011;10981;45.462;10.974;2023-09-30T03:20:18;16.27;;;10.50;;
21639;SDS011;10981;45.462;10.974;2023-09-30T03:22:49;14.32;;;10.27;;
21639;SDS011;10981;45.462;10.974;2023-09-30T03:25:18;18.10;;;9.75;;
21639;SDS011;10981;45.462;10.974;2023-09-30T03:27:48;13.70;;;10.38;;
21639;SDS011;10981;45.462;10.974;2023-09-30T03:30:17;13.88;;;9.27;;
21639;SDS011;10981;45.462;10.974;2023-09-30T03:32:47;18.35;;;9.82;;
21639;SDS011;10981;45.462;10.974;2023-09-30T03:35:16;16.00;;;10.60;;
21639;SDS011;10981;45.462;10.974;2023-09-30T03:37:46;19.70;;;11.05;;
21639;SDS011;10981;45.462;10.974;2023-09-30T03:40:15;14.40;;;9.68;;
21639;SDS011;10981;45.462;10.974;2023-09-30T03:42:47;12.77;;;9.67;;
21639;SDS011;10981;45.462;10.974;2023-09-30T03:45:19;16.08;;;10.32;;
21639;SDS011;10981;45.462;10.974;2023-09-30T03:47:47;13.80;;;9.40;;
21639;SDS011;10981;45.462;10.974;2023-09-30T03:50:16;14.20;;;10.40;;
21639;SDS011;10981;45.462;10.974;2023-09-30T03:52:45;14.45;;;9.88;;
21639;SDS011;10981;45.462;10.974;2023-09-30T03:55:16;15.93;;;9.57;;
21639;SDS011;10981;45.462;10.974;2023-09-30T03:57:48;14.45;;;11.00;;
21639;SDS011;10981;45.462;10.974;2023-09-30T04:00:19;16.13;;;11.85;;
21639;SDS011;10981;45.462;10.974;2023-09-30T04:02:48;13.30;;;9.48;;
21639;SDS011;10981;45.462;10.974;2023-09-30T04:05:18;17.27;;;11.15;;
21639;SDS011;10981;45.462;10.974;2023-09-30T04:07:56;16.75;;;10.13;;
21639;SDS011;10981;45.462;10.974;2023-09-30T04:10:24;15.10;;;9.45;;
21639;SDS011;10981;45.462;10.974;2023-09-30T04:12:53;11.68;;;9.20;;
21639;SDS011;10981;45.462;10.974;2023-09-30T04:15:21;14.77;;;9.80;;
21639;SDS011;10981;45.462;10.974;2023-09-30T04:17:50;14.73;;;10.20;;
21639;SDS011;10981;45.462;10.974;2023-09-30T04:20:20;15.45;;;10.95;;
21639;SDS011;10981;45.462;10.974;2023-09-30T04:22:50;16.05;;;10.35;;
21639;SDS011;10981;45.462;10.974;2023-09-30T04:25:24;13.47;;;9.67;;
21639;SDS011;10981;45.462;10.974;2023-09-30T04:27:53;17.00;;;9.38;;
21639;SDS011;10981;45.462;10.974;2023-09-30T04:30:21;12.88;;;9.60;;
21639;SDS011;10981;45.462;10.974;2023-09-30T04:32:50;11.80;;;9.63;;
21639;SDS011;10981;45.462;10.974;2023-09-30T04:35:18;14.85;;;9.55;;
21639;SDS011;10981;45.462;10.974;2023-09-30T04:37:47;15.60;;;9.93;;
21639;SDS011;10981;45.462;10.974;2023-09-30T04:40:15;14.43;;;10.98;;
21639;SDS011;10981;45.462;10.974;2023-09-30T04:42:47;14.98;;;10.25;;
21639;SDS011;10981;45.462;10.974;2023-09-30T04:45:17;14.02;;;9.55;;
21639;SDS011;10981;45.462;10.974;2023-09-30T04:47:48;14.43;;;9.80;;
21639;SDS011;10981;45.462;10.974;2023-09-30T04:50:17;14.95;;;10.90;;
21639;SDS011;10981;45.462;10.974;2023-09-30T04:52:52;17.33;;;9.70;;
21639;SDS011;10981;45.462;10.974;2023-09-30T04:55:24;15.40;;;10.38;;
21639;SDS011;10981;45.462;10.974;2023-09-30T04:57:53;15.48;;;10.95;;
21639;SDS011;10981;45.462;10.974;2023-09-30T05:00:22;15.20;;;10.40;;
21639;SDS011;10981;45.462;10.974;2023-09-30T05:02:52;16.55;;;9.82;;
21639;SDS011;10981;45.462;10.974;2023-09-30T05:05:22;13.30;;;9.25;;
21639;SDS011;10981;45.462;10.974;2023-09-30T05:07:51;17.55;;;10.48;;
21639;SDS011;10981;45.462;10.974;2023-09-30T05:10:19;14.50;;;11.30;;
21639;SDS011;10981;45.462;10.974;2023-09-30T05:12:48;14.23;;;10.10;;
21639;SDS011;10981;45.462;10.974;2023-09-30T05:15:20;14.35;;;10.25;;
21639;SDS011;10981;45.462;10.974;2023-09-30T05:17:49;15.73;;;10.55;;
21639;SDS011;10981;45.462;10.974;2023-09-30T05:20:17;15.93;;;11.02;;
21639;SDS011;10981;45.462;10.974;2023-09-30T05:22:47;12.38;;;9.77;;
21639;SDS011;10981;45.462;10.974;2023-09-30T05:25:16;15.55;;;10.88;;
21639;SDS011;10981;45.462;10.974;2023-09-30T05:27:45;20.58;;;10.65;;
21639;SDS011;10981;45.462;10.974;2023-09-30T05:30:17;22.92;;;11.45;;
21639;SDS011;10981;45.462;10.974;2023-09-30T05:32:47;21.55;;;11.77;;
21639;SDS011;10981;45.462;10.974;2023-09-30T05:35:19;18.83;;;12.15;;
21639;SDS011;10981;45.462;10.974;2023-09-30T05:37:50;17.33;;;10.77;;
21639;SDS011;10981;45.462;10.974;2023-09-30T05:40:20;16.85;;;10.93;;
21639;SDS011;10981;45.462;10.974;2023-09-30T05:42:58;19.73;;;11.43;;
21639;SDS011;10981;45.462;10.974;2023-09-30T05:45:27;17.00;;;10.75;;
21639;SDS011;10981;45.462;10.974;2023-09-30T05:47:59;17.40;;;12.18;;
21639;SDS011;10981;45.462;10.974;2023-09-30T05:50:31;21.48;;;10.98;;
21639;SDS011;10981;45.462;10.974;2023-09-30T05:53:01;20.38;;;10.98;;
21639;SDS011;10981;45.462;10.974;2023-09-30T05:55:32;18.50;;;11.35;;
21639;SDS011;10981;45.462;10.974;2023-09-30T05:58:00;17.85;;;11.20;;
21639;SDS011;10981;45.462;10.974;2023-09-30T06:00:29;18.65;;;12.23;;
21639;SDS011;10981;45.462;10.974;2023-09-30T06:02:58;18.15;;;11.02;;
21639;SDS011;10981;45.462;10.974;2023-09-30T06:05:28;18.92;;;10.98;;
21639;SDS011;10981;45.462;10.974;2023-09-30T06:07:59;18.70;;;11.50;;
21639;SDS011;10981;45.462;10.974;2023-09-30T06:13:00;15.23;;;11.32;;
21639;SDS011;10981;45.462;10.974;2023-09-30T06:15:29;16.05;;;11.55;;
21639;SDS011;10981;45.462;10.974;2023-09-30T06:17:59;18.08;;;11.20;;
21639;SDS011;10981;45.462;10.974;2023-09-30T06:20:28;25.40;;;12.20;;
21639;SDS011;10981;45.462;10.974;2023-09-30T06:23:01;24.65;;;11.07;;
21639;SDS011;10981;45.462;10.974;2023-09-30T06:25:29;25.00;;;12.02;;
21639;SDS011;10981;45.462;10.974;2023-09-30T06:28:00;21.95;;;11.07;;
21639;SDS011;10981;45.462;10.974;2023-09-30T06:30:28;22.35;;;11.88;;
21639;SDS011;10981;45.462;10.974;2023-09-30T06:32:58;21.35;;;12.40;;
21639;SDS011;10981;45.462;10.974;2023-09-30T06:35:28;17.63;;;12.52;;
21639;SDS011;10981;45.462;10.974;2023-09-30T06:38:06;20.35;;;12.93;;
21639;SDS011;10981;45.462;10.974;2023-09-30T06:40:35;21.20;;;12.65;;
21639;SDS011;10981;45.462;10.974;2023-09-30T06:43:07;21.67;;;12.55;;
21639;SDS011;10981;45.462;10.974;2023-09-30T06:45:36;14.95;;;10.80;;
21639;SDS011;10981;45.462;10.974;2023-09-30T06:48:09;16.92;;;11.60;;
21639;SDS011;10981;45.462;10.974;2023-09-30T06:50:46;24.10;;;12.32;;
21639;SDS011;10981;45.462;10.974;2023-09-30T06:53:17;17.35;;;12.07;;
21639;SDS011;10981;45.462;10.974;2023-09-30T06:55:46;18.92;;;12.80;;
21639;SDS011;10981;45.462;10.974;2023-09-30T06:58:14;20.73;;;12.85;;
21639;SDS011;10981;45.462;10.974;2023-09-30T07:00:49;15.85;;;11.07;;
21639;SDS011;10981;45.462;10.974;2023-09-30T07:03:18;22.02;;;11.63;;
21639;SDS011;10981;45.462;10.974;2023-09-30T07:05:55;17.75;;;11.75;;
21639;SDS011;10981;45.462;10.974;2023-09-30T07:08:24;21.95;;;12.65;;
21639;SDS011;10981;45.462;10.974;2023-09-30T07:10:53;18.23;;;12.63;;
21639;SDS011;10981;45.462;10.974;2023-09-30T07:13:21;22.30;;;13.25;;
21639;SDS011;10981;45.462;10.974;2023-09-30T07:15:50;16.27;;;11.23;;
21639;SDS011;10981;45.462;10.974;2023-09-30T07:18:18;17.15;;;12.35;;
21639;SDS011;10981;45.462;10.974;2023-09-30T07:20:47;17.30;;;12.05;;
21639;SDS011;10981;45.462;10.974;2023-09-30T07:23:19;20.42;;;11.30;;
21639;SDS011;10981;45.462;10.974;2023-09-30T07:25:48;23.05;;;12.00;;
21639;SDS011;10981;45.462;10.974;2023-09-30T07:28:16;24.38;;;11.57;;
21639;SDS011;10981;45.462;10.974;2023-09-30T07:30:45;23.58;;;12.15;;
21639;SDS011;10981;45.462;10.974;2023-09-30T07:33:13;21.67;;;12.32;;
21639;SDS011;10981;45.462;10.974;2023-09-30T07:35:42;22.17;;;11.63;;
21639;SDS011;10981;45.462;10.974;2023-09-30T07:38:10;17.05;;;10.57;;
21639;SDS011;10981;45.462;10.974;2023-09-30T07:40:41;21.20;;;11.65;;
21639;SDS011;10981;45.462;10.974;2023-09-30T07:43:15;19.95;;;12.52;;
21639;SDS011;10981;45.462;10.974;2023-09-30T07:45:44;20.77;;;11.88;;
21639;SDS011;10981;45.462;10.974;2023-09-30T07:48:13;16.35;;;10.98;;
21639;SDS011;10981;45.462;10.974;2023-09-30T07:50:41;18.40;;;11.65;;
21639;SDS011;10981;45.462;10.974;2023-09-30T07:53:10;21.10;;;11.05;;
21639;SDS011;10981;45.462;10.974;2023-09-30T07:55:39;20.70;;;11.40;;
21639;SDS011;10981;45.462;10.974;2023-09-30T07:58:07;19.35;;;11.40;;
21639;SDS011;10981;45.462;10.974;2023-09-30T08:00:38;18.92;;;11.75;;
21639;SDS011;10981;45.462;10.974;2023-09-30T08:03:09;22.33;;;11.23;;
21639;SDS011;10981;45.462;10.974;2023-09-30T08:05:38;19.95;;;11.00;;
21639;SDS011;10981;45.462;10.974;2023-09-30T08:08:06;16.63;;;10.38;;
21639;SDS011;10981;45.462;10.974;2023-09-30T08:10:34;17.02;;;11.20;;
21639;SDS011;10981;45.462;10.974;2023-09-30T08:13:03;14.15;;;10.05;;
21639;SDS011;10981;45.462;10.974;2023-09-30T08:15:34;15.48;;;9.73;;
21639;SDS011;10981;45.462;10.974;2023-09-30T08:18:03;16.25;;;10.85;;
21639;SDS011;10981;45.462;10.974;2023-09-30T08:20:33;14.35;;;9.27;;
21639;SDS011;10981;45.462;10.974;2023-09-30T08:23:01;20.25;;;9.88;;
21639;SDS011;10981;45.462;10.974;2023-09-30T08:25:31;17.10;;;10.55;;
21639;SDS011;10981;45.462;10.974;2023-09-30T08:27:59;15.20;;;9.88;;
21639;SDS011;10981;45.462;10.974;2023-09-30T08:30:29;17.25;;;9.48;;
21639;SDS011;10981;45.462;10.974;2023-09-30T08:32:58;18.90;;;9.57;;
21639;SDS011;10981;45.462;10.974;2023-09-30T08:35:26;13.98;;;10.18;;
21639;SDS011;10981;45.462;10.974;2023-09-30T08:37:55;14.05;;;9.43;;
21639;SDS011;10981;45.462;10.974;2023-09-30T08:40:25;15.13;;;9.27;;
21639;SDS011;10981;45.462;10.974;2023-09-30T08:42:54;13.50;;;9.32;;
21639;SDS011;10981;45.462;10.974;2023-09-30T08:45:22;15.57;;;9.05;;
21639;SDS011;10981;45.462;10.974;2023-09-30T08:47:52;13.40;;;9.00;;
21639;SDS011;10981;45.462;10.974;2023-09-30T08:50:21;20.17;;;10.60;;
21639;SDS011;10981;45.462;10.974;2023-09-30T08:52:50;17.77;;;8.98;;
21639;SDS011;10981;45.462;10.974;2023-09-30T08:55:19;15.38;;;9.88;;
21639;SDS011;10981;45.462;10.974;2023-09-30T08:57:48;14.88;;;9.15;;
21639;SDS011;10981;45.462;10.974;2023-09-30T09:00:18;11.90;;;9.32;;
21639;SDS011;10981;45.462;10.974;2023-09-30T09:02:48;15.98;;;9.30;;
21639;SDS011;10981;45.462;10.974;2023-09-30T09:05:17;15.60;;;9.38;;
21639;SDS011;10981;45.462;10.974;2023-09-30T09:07:46;13.18;;;8.75;;
21639;SDS011;10981;45.462;10.974;2023-09-30T09:10:17;17.58;;;9.15;;
21639;SDS011;10981;45.462;10.974;2023-09-30T09:12:54;18.17;;;10.27;;
21639;SDS011;10981;45.462;10.974;2023-09-30T09:15:27;16.25;;;9.90;;
21639;SDS011;10981;45.462;10.974;2023-09-30T09:17:56;16.55;;;8.50;;
21639;SDS011;10981;45.462;10.974;2023-09-30T09:20:25;15.43;;;8.48;;
21639;SDS011;10981;45.462;10.974;2023-09-30T09:22:53;15.77;;;9.75;;
21639;SDS011;10981;45.462;10.974;2023-09-30T09:25:23;12.60;;;8.65;;
21639;SDS011;10981;45.462;10.974;2023-09-30T09:27:52;15.77;;;8.55;;
21639;SDS011;10981;45.462;10.974;2023-09-30T09:30:26;10.88;;;8.00;;
21639;SDS011;10981;45.462;10.974;2023-09-30T09:33:01;17.25;;;9.02;;
21639;SDS011;10981;45.462;10.974;2023-09-30T09:35:34;22.60;;;10.57;;
21639;SDS011;10981;45.462;10.974;2023-09-30T09:38:04;17.65;;;11.30;;
21639;SDS011;10981;45.462;10.974;2023-09-30T09:40:36;23.63;;;10.60;;
21639;SDS011;10981;45.462;10.974;2023-09-30T09:43:07;14.43;;;9.30;;
21639;SDS011;10981;45.462;10.974;2023-09-30T09:45:37;16.40;;;9.50;;
21639;SDS011;10981;45.462;10.974;2023-09-30T09:48:05;16.13;;;9.52;;
21639;SDS011;10981;45.462;10.974;2023-09-30T09:50:34;17.15;;;9.10;;
21639;SDS011;10981;45.462;10.974;2023-09-30T09:53:03;20.30;;;10.65;;
21639;SDS011;10981;45.462;10.974;2023-09-30T09:55:32;17.77;;;10.30;;
21639;SDS011;10981;45.462;10.974;2023-09-30T09:58:03;18.95;;;9.77;;
21639;SDS011;10981;45.462;10.974;2023-09-30T10:00:33;18.50;;;10.50;;
21639;SDS011;10981;45.462;10.974;2023-09-30T10:03:03;16.85;;;9.43;;
21639;SDS011;10981;45.462;10.974;2023-09-30T10:05:32;15.85;;;9.32;;
21639;SDS011;10981;45.462;10.974;2023-09-30T10:08:04;15.38;;;9.73;;
21639;SDS011;10981;45.462;10.974;2023-09-30T10:10:36;16.92;;;10.00;;
21639;SDS011;10981;45.462;10.974;2023-09-30T10:13:06;17.17;;;10.52;;
21639;SDS011;10981;45.462;10.974;2023-09-30T10:15:35;17.30;;;10.05;;
21639;SDS011;10981;45.462;10.974;2023-09-30T10:20:42;15.68;;;9.68;;
21639;SDS011;10981;45.462;10.974;2023-09-30T10:25:48;13.27;;;9.73;;
21639;SDS011;10981;45.462;10.974;2023-09-30T10:31:13;15.07;;;10.10;;
21639;SDS011;10981;45.462;10.974;2023-09-30T10:38:57;17.83;;;10.65;;
21639;SDS011;10981;45.462;10.974;2023-09-30T10:46:54;15.43;;;9.00;;
21639;SDS011;10981;45.462;10.974;2023-09-30T10:51:53;14.38;;;10.55;;
21639;SDS011;10981;45.462;10.974;2023-09-30T10:54:30;12.43;;;9.48;;
21639;SDS011;10981;45.462;10.974;2023-09-30T10:57:00;16.60;;;10.60;;
21639;SDS011;10981;45.462;10.974;2023-09-30T10:59:29;17.17;;;9.75;;
21639;SDS011;10981;45.462;10.974;2023-09-30T11:01:57;14.45;;;9.20;;
21639;SDS011;10981;45.462;10.974;2023-09-30T11:04:26;13.02;;;8.65;;
21639;SDS011;10981;45.462;10.974;2023-09-30T11:06:55;12.98;;;9.02;;
21639;SDS011;10981;45.462;10.974;2023-09-30T11:09:25;13.50;;;8.90;;
21639;SDS011;10981;45.462;10.974;2023-09-30T11:11:54;16.45;;;8.38;;
21639;SDS011;10981;45.462;10.974;2023-09-30T11:14:29;16.70;;;9.23;;
21639;SDS011;10981;45.462;10.974;2023-09-30T11:17:00;10.88;;;8.30;;
21639;SDS011;10981;45.462;10.974;2023-09-30T11:19:36;15.60;;;8.85;;
21639;SDS011;10981;45.462;10.974;2023-09-30T11:22:17;11.40;;;8.38;;
21639;SDS011;10981;45.462;10.974;2023-09-30T11:24:46;14.55;;;7.97;;
21639;SDS011;10981;45.462;10.974;2023-09-30T11:27:24;15.43;;;9.35;;
21639;SDS011;10981;45.462;10.974;2023-09-30T11:29:54;23.40;;;10.13;;
21639;SDS011;10981;45.462;10.974;2023-09-30T11:32:23;15.48;;;8.73;;
21639;SDS011;10981;45.462;10.974;2023-09-30T11:34:54;15.60;;;8.50;;
21639;SDS011;10981;45.462;10.974;2023-09-30T11:37:23;13.32;;;7.88;;
21639;SDS011;10981;45.462;10.974;2023-09-30T11:40:13;15.88;;;7.55;;
21639;SDS011;10981;45.462;10.974;2023-09-30T11:42:42;14.88;;;8.63;;
21639;SDS011;10981;45.462;10.974;2023-09-30T11:45:30;12.88;;;7.72;;
21639;SDS011;10981;45.462;10.974;2023-09-30T11:47:58;14.40;;;8.57;;
21639;SDS011;10981;45.462;10.974;2023-09-30T11:50:44;14.60;;;9.65;;
21639;SDS011;10981;45.462;10.974;2023-09-30T11:53:19;12.32;;;8.35;;
21639;SDS011;10981;45.462;10.974;2023-09-30T11:55:48;14.15;;;7.63;;
21639;SDS011;10981;45.462;10.974;2023-09-30T11:58:16;20.17;;;9.57;;
21639;SDS011;10981;45.462;10.974;2023-09-30T12:00:46;16.02;;;9.73;;
21639;SDS011;10981;45.462;10.974;2023-09-30T12:03:18;10.80;;;8.52;;
21639;SDS011;10981;45.462;10.974;2023-09-30T12:05:47;12.13;;;8.90;;
21639;SDS011;10981;45.462;10.974;2023-09-30T12:08:18;14.07;;;8.73;;
21639;SDS011;10981;45.462;10.974;2023-09-30T12:10:47;13.55;;;8.85;;
21639;SDS011;10981;45.462;10.974;2023-09-30T12:13:16;13.55;;;8.35;;
21639;SDS011;10981;45.462;10.974;2023-09-30T12:15:45;14.18;;;8.27;;
21639;SDS011;10981;45.462;10.974;2023-09-30T12:18:15;12.65;;;8.70;;
21639;SDS011;10981;45.462;10.974;2023-09-30T12:20:46;11.98;;;8.63;;
21639;SDS011;10981;45.462;10.974;2023-09-30T12:23:14;11.25;;;7.88;;
21639;SDS011;10981;45.462;10.974;2023-09-30T12:25:45;15.73;;;7.93;;
21639;SDS011;10981;45.462;10.974;2023-09-30T12:28:36;14.73;;;7.35;;
21639;SDS011;10981;45.462;10.974;2023-09-30T12:31:07;9.05;;;6.95;;
21639;SDS011;10981;45.462;10.974;2023-09-30T12:33:38;9.73;;;7.57;;
21639;SDS011;10981;45.462;10.974;2023-09-30T12:36:07;13.52;;;7.40;;
21639;SDS011;10981;45.462;10.974;2023-09-30T12:38:35;12.00;;;6.85;;
21639;SDS011;10981;45.462;10.974;2023-09-30T12:41:05;13.23;;;7.40;;
21639;SDS011;10981;45.462;10.974;2023-09-30T12:43:33;16.88;;;8.68;;
21639;SDS011;10981;45.462;10.974;2023-09-30T12:46:01;9.55;;;6.57;;
21639;SDS011;10981;45.462;10.974;2023-09-30T12:48:32;15.38;;;7.95;;
21639;SDS011;10981;45.462;10.974;2023-09-30T12:51:01;13.32;;;7.88;;
21639;SDS011;10981;45.462;10.974;2023-09-30T12:53:33;12.70;;;7.85;;
21639;SDS011;10981;45.462;10.974;2023-09-30T12:56:01;13.32;;;7.65;;
21639;SDS011;10981;45.462;10.974;2023-09-30T12:58:32;11.25;;;8.20;;
21639;SDS011;10981;45.462;10.974;2023-09-30T13:01:00;14.50;;;8.65;;
21639;SDS011;10981;45.462;10.974;2023-09-30T13:03:48;12.68;;;7.50;;
21639;SDS011;10981;45.462;10.974;2023-09-30T13:06:16;9.38;;;7.60;;
21639;SDS011;10981;45.462;10.974;2023-09-30T13:08:46;13.73;;;7.05;;
21639;SDS011;10981;45.462;10.974;2023-09-30T13:11:14;9.40;;;7.13;;
21639;SDS011;10981;45.462;10.974;2023-09-30T13:13:43;11.70;;;7.35;;
21639;SDS011;10981;45.462;10.974;2023-09-30T13:16:13;13.38;;;7.65;;
21639;SDS011;10981;45.462;10.974;2023-09-30T13:18:41;13.43;;;8.02;;
21639;SDS011;10981;45.462;10.974;2023-09-30T13:21:10;11.15;;;7.63;;
21639;SDS011;10981;45.462;10.974;2023-09-30T13:23:39;10.55;;;8.07;;
21639;SDS011;10981;45.462;10.974;2023-09-30T13:26:07;12.07;;;8.30;;
21639;SDS011;10981;45.462;10.974;2023-09-30T13:28:37;10.10;;;7.70;;
21639;SDS011;10981;45.462;10.974;2023-09-30T13:31:06;9.02;;;7.80;;
21639;SDS011;10981;45.462;10.974;2023-09-30T13:33:35;9.60;;;8.25;;
21639;SDS011;10981;45.462;10.974;2023-09-30T13:36:03;9.07;;;7.57;;
21639;SDS011;10981;45.462;10.974;2023-09-30T13:38:32;13.65;;;7.65;;
21639;SDS011;10981;45.462;10.974;2023-09-30T13:41:01;10.32;;;7.82;;
21639;SDS011;10981;45.462;10.974;2023-09-30T13:43:29;10.95;;;7.70;;
21639;SDS011;10981;45.462;10.974;2023-09-30T13:46:02;14.18;;;7.97;;
21639;SDS011;10981;45.462;10.974;2023-09-30T13:48:34;10.18;;;7.53;;
21639;SDS011;10981;45.462;10.974;2023-09-30T13:51:05;9.10;;;7.60;;
21639;SDS011;10981;45.462;10.974;2023-09-30T13:53:34;8.75;;;7.65;;
21639;SDS011;10981;45.462;10.974;2023-09-30T13:56:02;10.90;;;7.50;;
21639;SDS011;10981;45.462;10.974;2023-09-30T13:58:31;14.60;;;7.38;;
21639;SDS011;10981;45.462;10.974;2023-09-30T14:00:59;12.07;;;7.43;;
21639;SDS011;10981;45.462;10.974;2023-09-30T14:03:28;12.02;;;6.93;;
21639;SDS011;10981;45.462;10.974;2023-09-30T14:05:57;9.95;;;7.90;;
21639;SDS011;10981;45.462;10.974;2023-09-30T14:08:26;11.15;;;7.30;;
21639;SDS011;10981;45.462;10.974;2023-09-30T14:10:56;12.55;;;7.80;;
21639;SDS011;10981;45.462;10.974;2023-09-30T14:13:25;13.77;;;8.18;;
21639;SDS011;10981;45.462;10.974;2023-09-30T14:15:53;11.35;;;8.18;;
21639;SDS011;10981;45.462;10.974;2023-09-30T14:18:21;11.63;;;7.32;;
21639;SDS011;10981;45.462;10.974;2023-09-30T14:20:50;10.38;;;8.02;;
21639;SDS011;10981;45.462;10.974;2023-09-30T14:23:18;14.38;;;7.45;;
21639;SDS011;10981;45.462;10.974;2023-09-30T14:25:46;11.57;;;7.18;;
21639;SDS011;10981;45.462;10.974;2023-09-30T14:28:15;14.38;;;7.72;;
21639;SDS011;10981;45.462;10.974;2023-09-30T14:30:43;9.77;;;6.90;;
21639;SDS011;10981;45.462;10.974;2023-09-30T14:33:12;11.82;;;7.07;;
21639;SDS011;10981;45.462;10.974;2023-09-30T14:35:41;11.15;;;7.07;;
21639;SDS011;10981;45.462;10.974;2023-09-30T14:38:11;10.13;;;6.50;;
21639;SDS011;10981;45.462;10.974;2023-09-30T14:40:42;10.98;;;6.88;;
21639;SDS011;10981;45.462;10.974;2023-09-30T14:43:10;12.05;;;6.82;;
21639;SDS011;10981;45.462;10.974;2023-09-30T14:45:39;9.45;;;6.20;;
21639;SDS011;10981;45.462;10.974;2023-09-30T14:48:08;8.70;;;6.45;;
21639;SDS011;10981;45.462;10.974;2023-09-30T14:50:36;10.52;;;6.75;;
21639;SDS011;10981;45.462;10.974;2023-09-30T14:53:05;7.50;;;5.93;;
21639;SDS011;10981;45.462;10.974;2023-09-30T14:55:33;9.13;;;6.75;;